This is the latest recevied weather packets stored in our database for station/object DG5MG. If no packets are shown the sender has not sent any weather packets the latest 10 day(s).
| Time | Temp. | Humidity | Pressure | Rain* | Wind** | Luminosity | Snow |
|---|---|---|---|---|---|---|---|
| 1777712105 | 22.22° C | 42% | 1027.1 hPa | 0 mm | - | 917 W/m² | - |
| 1777711805 | 20.56° C | 43% | 1027.1 hPa | 0 mm | - | 894 W/m² | - |
| 1777709405 | 18.89° C | 45% | 1027.1 hPa | 0 mm | - | 704 W/m² | - |
| 1777707605 | 17.78° C | 48% | 1027.4 hPa | 0 mm | - | 555 W/m² | - |
| 1777705805 | 16.11° C | 52% | 1027.8 hPa | 0 mm | - | 409 W/m² | - |
| 1777701605 | 10° C | 71% | 1027.4 hPa | 0 mm | - | 109 W/m² | - |
| 1777699805 | 8.33° C | 76% | 1027.4 hPa | 0 mm | - | 0 W/m² | - |
| 1777696205 | 3.89° C | 93% | 1027.4 hPa | 0 mm | - | 0 W/m² | - |
| 1777695005 | 2.78° C | 94% | 1027.4 hPa | 0 mm | - | 0 W/m² | - |
| 1777692005 | 3.33° C | 93% | 1027.4 hPa | 0 mm | - | 0 W/m² | - |
| 1777688104 | 3.89° C | 89% | 1027.4 hPa | 0 mm | - | 0 W/m² | - |
| 1777687504 | 4.44° C | 88% | 1027.8 hPa | 0 mm | - | 0 W/m² | - |
| 1777686304 | 5° C | 86% | 1027.8 hPa | 0 mm | - | 0 W/m² | - |
| 1777683905 | 5° C | 85% | 1028.1 hPa | 0 mm | - | 0 W/m² | - |
| 1777683305 | 5.56° C | 83% | 1028.1 hPa | 0 mm | - | 0 W/m² | - |
| 1777682404 | 5° C | 85% | 1028.1 hPa | 0 mm | - | 0 W/m² | - |
| 1777679705 | 6.11° C | 83% | 1028.4 hPa | 0 mm | - | 0 W/m² | - |
| 1777674305 | 7.78° C | 74% | 1028.8 hPa | 0 mm | - | 0 W/m² | - |
| 1777673105 | 8.89° C | 69% | 1029.1 hPa | 0 mm | - | 0 W/m² | - |
| 1777672204 | 9.44° C | 68% | 1028.8 hPa | 0 mm | - | 0 W/m² | - |
| 1777667404 | 12.22° C | 58% | 1029.1 hPa | 0 mm | - | 0 W/m² | - |
| 1777666805 | 12.78° C | 55% | 1029.1 hPa | 0 mm | - | 0 W/m² | - |
| 1777666205 | 12.78° C | 53% | 1029.1 hPa | 0 mm | - | 0 W/m² | - |
| 1777663804 | 13.89° C | 50% | 1029.1 hPa | 0 mm | - | 0 W/m² | - |
| 1777662004 | 15° C | 48% | 1028.8 hPa | 0 mm | - | 0 W/m² | - |
* Rain latest hour (hover to see other rain measurements)
** Current wind speed in m/s (hover to see current wind gust speed)